SAZB/BHI METAR and TAF weather

Enter ICAO airport designator
Station Type Date Time Source
SAZB METAR 2020/01/28 14:15 UTC NOAA

SAZB 281415Z 29017KT 9999 FEW040 FEW050CB 28/12 Q1004


Station Type Date Time Source
SAZB Decoded METAR 2020/01/28 14:15 UTC NOAA

Bahia Blanca Aerodrome, Argentina (SAZB) 38-44S 062-10W 83M
Jan 28, 2020 - 09:15 AM EST / 2020.01.28 1415 UTC
Wind: from the WNW (290 degrees) at 20 MPH (17 KT):0
Visibility: greater than 7 mile(s):0
Sky conditions: mostly clear
Weather: Cumulonimbus clouds observed
Temperature: 82 F (28 C)
Dew Point: 53 F (12 C)
Relative Humidity: 37%
Pressure (altimeter): 29.65 in. Hg (1004 hPa)
ob: SAZB 281415Z 29017KT 9999 FEW040 FEW050CB 28/12 Q1004
cycle: 14

Station Type Date Time Source
SAZB TAF 2020/01/14 00:54 UTC NOAA

TAF SAZB 142300Z 1500/1524 24015G25KT CAVOK TX22/1518Z TN16/1510Z
BECMG 1510/1512 21020KT

Example: see airport list